Time;durP1;ratioP1;P1;durP2;ratioP2;P2;SDS_P1;SDS_P2;PMS_P1;PMS_P2;Temp;Humidity;BMP_temperature;BMP_pressure;BME280_temperature;BME280_humidity;BME280_pressure;Samples;Min_cycle;Max_cycle;Signal;HPM_P1;HPM_P2
2022/08/12 00:46:32;;;;;;;1.10;1.00;;;;;;;20.07;51.15;97302.19;10479556;28;20083;-60
2022/08/12 00:52:05;;;;;;;1.05;1.02;;;;;;;20.08;51.32;97309.19;10475858;28;20110;-60
2022/08/12 00:57:28;;;;;;;1.13;1.10;;;;;;;20.09;51.27;97302.69;10463508;28;20049;-60
2022/08/12 01:02:56;;;;;;;1.10;1.00;;;;;;;20.08;51.18;97300.28;10464370;28;20052;-60
2022/08/12 01:13:55;;;;;;;0.95;0.95;;;;;;;20.07;51.41;97304.91;10481516;28;20049;-60
2022/08/12 01:19:16;;;;;;;0.95;0.93;;;;;;;20.08;51.37;97300.28;10456397;28;20049;-60
2022/08/12 01:24:46;;;;;;;1.27;1.15;;;;;;;20.08;51.52;97301.06;10461196;28;20099;-60
2022/08/12 01:30:09;;;;;;;2.28;1.23;;;;;;;20.08;51.37;97300.28;10452290;28;20053;-60
2022/08/12 01:35:29;;;;;;;1.25;1.10;;;;;;;20.07;51.47;97299.50;10487010;28;20060;-60
2022/08/12 01:40:50;;;;;;;1.20;1.10;;;;;;;20.07;51.40;97287.84;10491866;28;20044;-60
2022/08/12 01:46:28;;;;;;;1.00;1.00;;;;;;;20.07;51.43;97285.97;10499620;28;20055;-58
2022/08/12 01:51:55;;;;;;;1.00;1.00;;;;;;;20.07;51.48;97283.28;10484120;28;20101;-59
2022/08/12 01:57:43;;;;;;;1.50;1.13;;;;;;;20.08;51.41;97289.47;10499169;28;20064;-60
2022/08/12 02:03:18;;;;;;;1.03;1.03;;;;;;;20.07;51.50;97282.44;10480040;28;20045;-59
2022/08/12 02:15:03;;;;;;;1.20;1.10;;;;;;;20.08;51.43;97278.66;10496330;28;20052;-60
2022/08/12 02:20:42;;;;;;;1.80;1.08;;;;;;;20.07;51.43;97274.34;10482597;28;20053;-58
2022/08/12 02:26:06;;;;;;;1.10;1.00;;;;;;;20.06;51.49;97270.84;10451258;28;20044;-60
2022/08/12 02:31:28;;;;;;;1.20;1.02;;;;;;;20.07;51.47;97261.63;10470049;28;20036;-60
2022/08/12 02:36:48;;;;;;;1.70;1.17;;;;;;;20.08;51.51;97267.84;10456494;28;20393;-60
2022/08/12 02:42:09;;;;;;;0.90;0.90;;;;;;;20.06;51.42;97267.34;10477015;28;20385;-60
2022/08/12 02:47:30;;;;;;;1.15;1.05;;;;;;;20.06;51.48;97261.94;10463293;28;20064;-60
2022/08/12 02:52:51;;;;;;;1.10;1.00;;;;;;;20.07;51.43;97250.81;10456559;28;20075;-60
2022/08/12 02:58:10;;;;;;;0.75;0.75;;;;;;;20.06;51.48;97245.72;10478322;28;20052;-60
2022/08/12 03:03:32;;;;;;;1.13;1.00;;;;;;;20.06;51.43;97260.03;10469272;28;20075;-59
2022/08/12 03:08:56;;;;;;;1.10;1.00;;;;;;;20.06;51.47;97256.53;10482713;28;20057;-60
2022/08/12 03:14:18;;;;;;;1.27;1.10;;;;;;;20.05;51.43;97260.34;10453777;28;20041;-59
2022/08/12 03:19:38;;;;;;;1.00;1.00;;;;;;;20.05;51.51;97257.63;10466115;28;20053;-60
2022/08/12 03:25:03;;;;;;;0.90;0.90;;;;;;;20.04;50.83;97261.47;10481854;28;20048;-58
2022/08/12 03:30:30;;;;;;;1.15;1.13;;;;;;;20.01;49.94;97262.88;10444894;28;20056;-59
2022/08/12 03:35:52;;;;;;;1.27;1.13;;;;;;;19.99;49.24;97262.38;10457169;28;20052;-59
2022/08/12 03:41:36;;;;;;;1.17;0.90;;;;;;;19.97;48.83;97266.53;10444983;28;20049;-60
2022/08/12 04:04:00;;;;;;;1.93;1.20;;;;;;;19.85;47.85;97267.94;10453843;28;20053;-59
2022/08/12 04:09:21;;;;;;;4.85;1.20;;;;;;;19.84;47.54;97273.69;10473237;28;20075;-60
2022/08/12 04:14:40;;;;;;;1.35;1.20;;;;;;;19.83;47.96;97274.78;10456806;28;20079;-60
2022/08/12 04:19:59;;;;;;;2.97;1.08;;;;;;;19.83;48.00;97270.16;10456090;28;20057;-60
2022/08/12 04:25:22;;;;;;;1.35;1.10;;;;;;;19.86;47.78;97272.25;10460729;28;20052;-60
2022/08/12 04:30:42;;;;;;;1.45;1.30;;;;;;;19.60;47.82;97279.44;10455181;28;20056;-60
2022/08/12 04:36:01;;;;;;;1.20;0.95;;;;;;;19.27;48.51;97274.38;10454677;28;20067;-59
2022/08/12 04:41:21;;;;;;;0.98;0.85;;;;;;;19.35;49.04;97277.13;10468106;28;20428;-60
2022/08/12 04:46:41;;;;;;;1.88;1.30;;;;;;;19.50;48.92;97275.09;10467405;28;20045;-60
2022/08/12 04:52:01;;;;;;;2.35;1.10;;;;;;;19.59;49.02;97278.66;10460916;28;20049;-60
2022/08/12 04:57:21;;;;;;;1.30;1.08;;;;;;;19.65;49.26;97279.31;10466909;28;20053;-59
2022/08/12 05:02:41;;;;;;;1.73;1.02;;;;;;;19.68;49.33;97279.47;10462557;28;20439;-60
2022/08/12 05:08:00;;;;;;;2.65;1.02;;;;;;;19.72;49.57;97287.78;10465357;28;20045;-60
2022/08/12 05:13:22;;;;;;;1.15;1.00;;;;;;;19.69;49.55;97283.75;10461082;28;20056;-60
2022/08/12 05:18:42;;;;;;;1.10;1.00;;;;;;;19.73;49.76;97284.75;10447978;28;20057;-59
2022/08/12 05:24:01;;;;;;;2.00;0.95;;;;;;;19.77;50.00;97287.63;10464437;28;20053;-59
2022/08/12 05:29:21;;;;;;;2.03;1.30;;;;;;;19.80;50.08;97291.59;10461020;28;20128;-59
2022/08/12 05:34:40;;;;;;;3.60;1.48;;;;;;;19.82;50.14;97292.13;10474155;28;20049;-59
2022/08/12 05:40:00;;;;;;;6.07;1.90;;;;;;;19.83;50.35;97297.19;10478591;28;20053;-59
2022/08/12 05:45:19;;;;;;;5.45;2.38;;;;;;;19.84;50.45;97304.19;10479832;28;20043;-59
2022/08/12 05:50:39;;;;;;;9.20;2.70;;;;;;;19.86;50.50;97314.72;10478902;28;20052;-59
2022/08/12 05:55:58;;;;;;;9.98;2.78;;;;;;;19.87;50.68;97319.00;10473711;28;20053;-59
2022/08/12 06:01:19;;;;;;;7.07;2.33;;;;;;;19.87;50.81;97317.06;10486042;28;20059;-59
2022/08/12 06:06:41;;;;;;;7.68;2.55;;;;;;;19.86;50.70;97314.72;10500153;28;20040;-59
2022/08/12 06:12:00;;;;;;;11.77;2.78;;;;;;;19.87;50.91;97322.50;10457251;28;20049;-59
2022/08/12 06:17:20;;;;;;;7.32;2.63;;;;;;;19.87;50.91;97313.59;10477688;28;20044;-59
2022/08/12 06:22:44;;;;;;;7.82;2.58;;;;;;;19.87;51.04;97319.78;10491137;28;20065;-59
2022/08/12 06:28:14;;;;;;;7.68;2.28;;;;;;;19.88;51.17;97326.78;10495584;28;20170;-59
2022/08/12 06:33:34;;;;;;;7.13;2.33;;;;;;;19.88;51.24;97315.97;10460430;28;20057;-59
2022/08/12 06:38:54;;;;;;;6.03;2.17;;;;;;;19.88;51.28;97315.97;10491005;28;20519;-58
2022/08/12 06:44:19;;;;;;;5.68;2.20;;;;;;;19.89;51.35;97314.84;10498607;28;20102;-59
2022/08/12 06:49:38;;;;;;;4.20;2.30;;;;;;;19.88;51.32;97313.28;10474874;28;20086;-59
2022/08/12 06:54:58;;;;;;;6.63;2.60;;;;;;;19.89;51.54;97317.56;10457004;28;20095;-59
2022/08/12 07:00:22;;;;;;;5.47;2.55;;;;;;;19.90;51.52;97316.47;10457926;28;20056;-59
2022/08/12 07:05:43;;;;;;;5.75;2.55;;;;;;;19.90;51.54;97310.28;10475549;28;20431;-59
2022/08/12 07:11:05;;;;;;;7.32;2.40;;;;;;;19.91;51.65;97317.25;10470630;28;20385;-59
2022/08/12 07:16:27;;;;;;;6.05;2.28;;;;;;;19.92;51.63;97318.88;10455270;28;20041;-59
2022/08/12 07:21:47;;;;;;;6.82;2.08;;;;;;;19.93;51.57;97323.16;10468374;28;20056;-59
2022/08/12 07:27:06;;;;;;;4.85;2.53;;;;;;;19.91;51.82;97318.03;10459927;28;20041;-59
2022/08/12 07:32:27;;;;;;;7.68;2.47;;;;;;;19.91;51.87;97323.44;10456418;28;20060;-59
2022/08/12 07:37:49;;;;;;;7.50;2.25;;;;;;;19.93;52.00;97313.16;10460337;28;20508;-59
2022/08/12 07:43:08;;;;;;;4.38;2.30;;;;;;;19.92;51.95;97311.53;10471461;28;20059;-59
2022/08/12 07:48:34;;;;;;;4.47;2.03;;;;;;;19.92;51.97;97311.53;10477276;28;20511;-59
2022/08/12 07:53:56;;;;;;;5.63;2.25;;;;;;;19.93;51.99;97306.91;10467873;28;20075;-59
2022/08/12 07:59:15;;;;;;;4.50;1.92;;;;;;;19.93;52.11;97304.22;10482455;28;20049;-58
2022/08/12 08:10:13;;;;;;;3.60;1.95;;;;;;;19.93;52.09;97305.03;10477320;28;20059;-59
2022/08/12 08:15:33;;;;;;;4.68;2.30;;;;;;;19.94;52.25;97305.81;10467665;28;20044;-59
2022/08/12 08:20:55;;;;;;;4.13;2.00;;;;;;;19.93;52.18;97307.75;10458874;28;20135;-59
2022/08/12 08:26:15;;;;;;;3.42;1.92;;;;;;;19.94;52.30;97317.44;10472424;28;20493;-59
2022/08/12 08:31:34;;;;;;;3.65;2.00;;;;;;;19.93;52.31;97307.75;10467197;28;20048;-59
2022/08/12 08:36:54;;;;;;;2.88;1.98;;;;;;;19.95;52.33;97305.50;10459708;28;20049;-59
2022/08/12 08:47:53;;;;;;;5.23;2.30;;;;;;;19.94;52.40;97295.78;10484092;28;20047;-59
2022/08/12 08:53:12;;;;;;;3.80;2.00;;;;;;;19.95;52.47;97300.09;10469650;28;20053;-58
2022/08/12 08:58:32;;;;;;;4.20;2.00;;;;;;;19.95;52.54;97308.22;10468870;28;20045;-59
2022/08/12 09:03:51;;;;;;;3.83;1.90;;;;;;;19.95;52.52;97310.94;10467703;28;20392;-58
2022/08/12 09:09:11;;;;;;;3.50;2.08;;;;;;;19.97;52.66;97317.91;10475857;28;20079;-59
2022/08/12 09:14:30;;;;;;;4.70;1.95;;;;;;;19.97;52.63;97310.59;10484598;28;20045;-59
2022/08/12 09:19:49;;;;;;;2.70;1.67;;;;;;;19.98;52.61;97303.28;10463236;28;20056;-59
2022/08/12 09:25:09;;;;;;;3.88;1.80;;;;;;;19.97;52.63;97307.88;10477160;28;20036;-59
2022/08/12 09:30:29;;;;;;;2.58;1.60;;;;;;;19.98;52.73;97308.69;10470084;28;20059;-58
2022/08/12 09:35:48;;;;;;;3.40;1.70;;;;;;;19.98;52.77;97295.19;10461868;28;20048;-59
2022/08/12 09:41:09;;;;;;;2.75;1.80;;;;;;;19.98;52.79;97297.88;10466779;28;20060;-59
2022/08/12 09:46:28;;;;;;;3.63;1.65;;;;;;;19.99;52.80;97308.38;10460598;28;20043;-59
2022/08/12 09:51:48;;;;;;;2.55;1.52;;;;;;;19.98;52.87;97285.16;10474258;28;20086;-59
2022/08/12 09:57:08;;;;;;;2.70;1.65;;;;;;;19.99;52.87;97292.13;10464517;28;20090;-59
2022/08/12 10:02:27;;;;;;;2.67;1.70;;;;;;;19.99;52.91;97292.13;10460031;28;20053;-59
2022/08/12 10:07:46;;;;;;;3.65;1.70;;;;;;;19.99;52.93;97285.94;10458926;28;20049;-59
2022/08/12 10:18:48;;;;;;;2.57;1.50;;;;;;;20.01;52.70;97259.38;10487092;28;20125;-59
2022/08/12 10:24:14;;;;;;;2.53;1.60;;;;;;;20.00;52.96;97258.59;10473685;28;20056;-59
2022/08/12 10:29:43;;;;;;;3.40;1.73;;;;;;;20.00;53.01;97271.31;10481404;28;20061;-59
2022/08/12 10:35:02;;;;;;;3.78;2.08;;;;;;;20.01;53.03;97262.09;10470896;28;20119;-59
2022/08/12 10:40:22;;;;;;;3.08;1.70;;;;;;;20.00;53.08;97264.00;10472363;28;20045;-59
2022/08/12 10:45:42;;;;;;;2.13;1.60;;;;;;;20.02;53.05;97252.88;10470487;28;20064;-59
2022/08/12 10:51:04;;;;;;;2.20;1.40;;;;;;;20.01;53.16;97248.56;10496877;28;20048;-59
2022/08/12 10:56:24;;;;;;;3.22;1.50;;;;;;;20.01;53.04;97235.03;10468192;28;20074;-59
2022/08/12 11:01:44;;;;;;;2.97;1.67;;;;;;;20.02;53.20;97244.75;10451549;28;20119;-58
2022/08/12 11:07:03;;;;;;;2.75;1.70;;;;;;;20.01;53.13;97235.81;10483591;28;20052;-59
2022/08/12 11:12:23;;;;;;;2.40;1.50;;;;;;;20.02;53.28;97231.22;10467214;28;20049;-59
2022/08/12 11:17:42;;;;;;;2.53;1.65;;;;;;;20.03;53.23;97227.41;10496035;28;20046;-59
2022/08/12 11:23:01;;;;;;;2.17;1.60;;;;;;;20.03;53.16;97219.28;10494546;28;20056;-59
2022/08/12 11:28:21;;;;;;;2.45;1.40;;;;;;;20.03;53.27;97203.06;10507466;28;20036;-59
2022/08/12 11:33:42;;;;;;;2.67;1.35;;;;;;;20.03;53.24;97205.78;10468527;28;20076;-59
2022/08/12 11:39:02;;;;;;;1.70;1.20;;;;;;;20.05;53.34;97208.94;10455206;28;20546;-59
2022/08/12 11:44:21;;;;;;;2.10;1.40;;;;;;;20.04;53.32;97181.13;10456426;28;20064;-59
2022/08/12 11:49:40;;;;;;;3.05;1.50;;;;;;;20.04;53.32;97188.44;10456678;28;20146;-59
2022/08/12 11:55:00;;;;;;;2.58;1.40;;;;;;;20.04;53.33;97188.44;10460104;28;20049;-59
2022/08/12 12:00:20;;;;;;;1.90;1.52;;;;;;;20.04;53.34;97186.53;10454936;28;20048;-59
2022/08/12 12:05:39;;;;;;;2.85;1.63;;;;;;;20.05;53.33;97187.31;10437216;28;20504;-59
2022/08/12 12:10:58;;;;;;;3.05;1.60;;;;;;;20.05;53.33;97198.13;10463957;28;20048;-59
2022/08/12 12:16:18;;;;;;;2.50;1.52;;;;;;;20.05;53.32;97193.53;10483004;28;20048;-59
2022/08/12 12:21:38;;;;;;;1.80;1.35;;;;;;;20.05;53.43;97173.78;10460125;28;20061;-59
2022/08/12 12:26:58;;;;;;;1.90;1.40;;;;;;;20.06;53.44;97178.09;10456657;28;20106;-59
2022/08/12 12:32:18;;;;;;;2.25;1.40;;;;;;;20.06;53.39;97172.69;10461296;28;20106;-58
2022/08/12 12:37:54;;;;;;;1.88;1.30;;;;;;;20.07;53.43;97155.34;10475487;28;20053;-60
2022/08/12 12:43:14;;;;;;;1.70;1.33;;;;;;;20.06;53.49;97153.75;10443150;28;20057;-59
2022/08/12 12:48:33;;;;;;;1.80;1.33;;;;;;;20.07;53.55;97160.75;10452726;28;20385;-60
2022/08/12 12:53:54;;;;;;;2.13;1.45;;;;;;;20.06;53.51;97161.88;10459158;28;20119;-59
2022/08/12 12:59:17;;;;;;;2.50;1.33;;;;;;;20.07;53.51;97160.75;10454414;28;20060;-60
2022/08/12 13:04:36;;;;;;;2.60;1.50;;;;;;;20.07;53.56;97150.75;10454521;28;20111;-59
2022/08/12 13:09:56;;;;;;;1.38;1.27;;;;;;;20.07;53.51;97164.25;10459892;28;20156;-59
2022/08/12 13:15:16;;;;;;;1.77;1.42;;;;;;;20.07;53.51;97150.75;10475873;28;20044;-57
2022/08/12 13:20:35;;;;;;;1.75;1.30;;;;;;;20.07;53.57;97147.22;10466420;28;20082;-59
2022/08/12 13:25:56;;;;;;;1.95;1.20;;;;;;;20.09;53.62;97147.69;10462072;28;20572;-59
2022/08/12 13:31:15;;;;;;;1.90;1.25;;;;;;;20.08;53.61;97149.63;10475017;28;20041;-60
2022/08/12 13:36:35;;;;;;;1.38;1.25;;;;;;;20.08;53.68;97154.22;10465451;28;20059;-59
2022/08/12 13:41:55;;;;;;;2.40;1.40;;;;;;;20.09;53.78;97145.00;10443781;28;20053;-59
2022/08/12 13:47:14;;;;;;;1.90;1.45;;;;;;;20.11;53.67;97140.06;10459561;28;20492;-59
2022/08/12 13:52:33;;;;;;;2.78;1.30;;;;;;;20.11;53.75;97132.75;10466007;28;20471;-59
2022/08/12 13:57:53;;;;;;;1.70;1.35;;;;;;;20.14;53.88;97142.13;10488228;28;20045;-60
2022/08/12 14:03:13;;;;;;;2.00;1.42;;;;;;;20.17;53.56;97146.91;10460144;28;20048;-59
2022/08/12 14:08:33;;;;;;;2.30;1.40;;;;;;;20.15;53.43;97143.75;10469281;28;20049;-60
2022/08/12 14:13:52;;;;;;;1.50;1.40;;;;;;;20.15;53.22;97136.41;10499722;28;20052;-58
2022/08/12 14:19:11;;;;;;;1.73;1.60;;;;;;;20.15;53.14;97127.50;10498553;28;20492;-60
2022/08/12 14:24:35;;;;;;;1.90;1.42;;;;;;;20.15;52.90;97116.69;10461233;28;20053;-59
2022/08/12 14:29:55;;;;;;;1.48;1.30;;;;;;;20.17;52.78;97130.69;10458800;28;20053;-60
2022/08/12 14:35:15;;;;;;;3.17;1.48;;;;;;;20.18;52.32;97126.84;10453155;28;20053;-60
2022/08/12 14:40:34;;;;;;;2.00;1.50;;;;;;;20.20;52.36;97119.22;10480821;28;20098;-59
2022/08/12 14:45:55;;;;;;;1.92;1.38;;;;;;;20.22;51.90;97132.44;10497559;28;20499;-57
2022/08/12 14:51:16;;;;;;;5.95;1.50;;;;;;;20.21;51.83;97125.41;10469773;28;20515;-61
2022/08/12 14:56:35;;;;;;;2.53;1.40;;;;;;;20.19;51.94;97128.47;10491794;28;20056;-59
2022/08/12 15:01:58;;;;;;;1.92;1.50;;;;;;;20.18;52.09;97118.75;10483050;28;20057;-60
2022/08/12 15:07:17;;;;;;;3.35;1.27;;;;;;;20.20;52.11;97119.22;10495108;28;20037;-59
2022/08/12 15:12:36;;;;;;;1.85;1.50;;;;;;;20.21;52.15;97122.69;10486089;28;20048;-59
2022/08/12 15:17:59;;;;;;;1.65;1.35;;;;;;;20.21;52.11;97110.00;10473433;28;20502;-58
2022/08/12 15:23:21;;;;;;;3.28;1.42;;;;;;;20.21;52.06;97104.59;10469819;28;20068;-60
2022/08/12 15:28:45;;;;;;;4.53;1.40;;;;;;;20.24;52.10;97108.56;10462416;28;20043;-59
2022/08/12 15:34:06;;;;;;;2.05;1.50;;;;;;;20.26;52.20;97104.41;10450810;28;20048;-60
2022/08/12 15:39:26;;;;;;;2.92;1.50;;;;;;;20.29;51.61;97102.97;10476201;28;20048;-60
2022/08/12 15:44:45;;;;;;;1.70;1.38;;;;;;;20.32;50.91;97095.00;10481595;28;20053;-60
2022/08/12 15:50:06;;;;;;;3.25;1.27;;;;;;;20.34;50.50;97090.06;10458344;28;20048;-59
2022/08/12 15:55:25;;;;;;;1.42;1.23;;;;;;;20.35;50.35;97082.75;10478046;28;20052;-59
2022/08/12 16:00:45;;;;;;;3.00;1.42;;;;;;;20.37;50.36;97075.09;10461185;28;20110;-58
2022/08/12 16:06:04;;;;;;;1.60;1.50;;;;;;;20.38;50.08;97071.28;10444576;28;20071;-59
2022/08/12 16:11:24;;;;;;;1.40;1.30;;;;;;;20.39;49.55;97077.50;10455356;28;20056;-58
2022/08/12 16:16:43;;;;;;;2.13;1.40;;;;;;;20.40;49.63;97084.47;10444486;28;20045;-62
2022/08/12 16:22:03;;;;;;;1.20;1.20;;;;;;;20.42;49.15;97076.84;10461337;28;20451;-58
2022/08/12 16:27:24;;;;;;;1.60;1.30;;;;;;;20.42;48.98;97063.31;10455291;28;20056;-58
2022/08/12 16:32:43;;;;;;;2.25;1.40;;;;;;;20.43;49.01;97073.81;10459366;28;20052;-59
2022/08/12 16:38:03;;;;;;;5.53;1.73;;;;;;;20.45;48.78;97071.56;10464060;28;20114;-55
2022/08/12 16:43:25;;;;;;;2.83;1.30;;;;;;;20.44;49.07;97069.19;10454977;28;20052;-59
2022/08/12 16:48:44;;;;;;;1.40;1.30;;;;;;;20.44;48.58;97069.97;10451505;28;20057;-59
2022/08/12 16:54:07;;;;;;;1.55;1.20;;;;;;;20.46;48.50;97072.34;10462730;28;20176;-60
2022/08/12 16:59:27;;;;;;;2.17;1.40;;;;;;;20.46;48.43;97066.94;10455122;28;20053;-59
2022/08/12 17:04:47;;;;;;;1.92;1.20;;;;;;;20.47;48.61;97057.72;10481854;28;20403;-60
2022/08/12 17:10:14;;;;;;;3.28;1.30;;;;;;;20.47;48.56;97050.41;10501013;28;20052;-60
2022/08/12 17:15:36;;;;;;;3.30;1.23;;;;;;;20.47;48.62;97052.31;10475056;28;20049;-58
2022/08/12 17:20:57;;;;;;;1.65;1.50;;;;;;;20.44;48.81;97051.03;10453626;28;20060;-58
2022/08/12 17:26:19;;;;;;;1.65;1.23;;;;;;;20.44;48.89;97050.25;10487046;28;20060;-59
2022/08/12 17:31:43;;;;;;;2.35;1.48;;;;;;;20.42;49.93;97055.19;10490766;28;20057;-61
2022/08/12 17:37:03;;;;;;;3.95;1.77;;;;;;;20.40;50.14;97058.22;10478888;28;20071;-59
2022/08/12 17:42:22;;;;;;;2.10;1.42;;;;;;;20.38;50.24;97059.66;10461150;28;20063;-59
2022/08/12 17:47:42;;;;;;;2.28;1.15;;;;;;;20.37;50.35;97058.09;10461121;28;20059;-58
2022/08/12 17:53:04;;;;;;;1.63;1.50;;;;;;;20.35;50.57;97067.31;10445286;28;20053;-58
2022/08/12 17:58:30;;;;;;;1.40;1.30;;;;;;;20.35;50.83;97066.53;10463784;28;20497;-57
2022/08/12 18:03:51;;;;;;;1.30;1.20;;;;;;;20.35;50.83;97078.13;10460401;28;20060;-60
2022/08/12 18:09:13;;;;;;;1.50;1.40;;;;;;;20.35;50.84;97072.72;10459538;28;20057;-60
2022/08/12 18:14:32;;;;;;;3.45;1.30;;;;;;;20.35;51.00;97072.72;10470438;28;20110;-60
2022/08/12 18:19:53;;;;;;;1.40;1.30;;;;;;;20.35;51.11;97061.91;10459031;28;20057;-58
2022/08/12 18:30:52;;;;;;;1.83;1.50;;;;;;;20.35;51.26;97070.00;10462942;28;20401;-57
2022/08/12 18:36:13;;;;;;;2.88;1.15;;;;;;;20.36;51.35;97081.63;10443251;28;20079;-57
2022/08/12 18:41:34;;;;;;;2.53;1.40;;;;;;;20.35;51.53;97082.75;10484320;28;20377;-60
2022/08/12 18:46:58;;;;;;;1.88;1.40;;;;;;;20.33;51.21;97085.78;10496217;28;20048;-59
2022/08/12 18:52:18;;;;;;;4.28;1.52;;;;;;;20.34;51.05;97095.47;10496911;28;20047;-58
2022/08/12 18:57:41;;;;;;;3.58;1.58;;;;;;;20.33;51.27;97102.00;10478092;28;20044;-56
2022/08/12 19:03:04;;;;;;;1.40;1.30;;;;;;;20.33;51.42;97096.59;10497627;28;20049;-58
2022/08/12 19:08:28;;;;;;;1.85;1.35;;;;;;;20.35;51.49;97097.06;10496388;28;20052;-57
2022/08/12 19:19:26;;;;;;;;;;;;;;;20.34;51.78;97091.97;10482101;28;20071;-57
2022/08/12 19:36:04;;;;;;;1.50;1.40;;;;;;;20.33;51.93;97091.19;10469887;28;20044;-58
2022/08/12 19:41:24;;;;;;;1.35;1.20;;;;;;;20.34;51.97;97092.75;10464501;28;20577;-56
2022/08/12 19:46:45;;;;;;;2.95;1.33;;;;;;;20.33;52.05;97091.19;10440497;28;20051;-57
2022/08/12 19:52:10;;;;;;;1.50;1.40;;;;;;;20.34;52.21;97094.69;10481910;28;20053;-58
2022/08/12 19:57:31;;;;;;;1.42;1.23;;;;;;;20.34;52.18;97092.75;10444552;28;20102;-57
2022/08/12 20:02:54;;;;;;;4.43;1.40;;;;;;;20.33;52.22;97088.47;10458296;28;20090;-58
2022/08/12 20:08:14;;;;;;;2.08;1.48;;;;;;;20.33;52.27;97088.47;10464001;28;20492;-58
2022/08/12 20:13:34;;;;;;;3.53;1.60;;;;;;;20.35;52.54;97088.94;10478647;28;20060;-58
2022/08/12 20:18:53;;;;;;;2.67;1.58;;;;;;;20.34;52.77;97091.97;10470301;28;20052;-57
2022/08/12 20:24:13;;;;;;;3.15;1.67;;;;;;;20.35;52.75;97094.38;10467417;28;20132;-57
2022/08/12 20:29:32;;;;;;;3.33;1.50;;;;;;;20.36;52.77;97095.16;10463436;28;20063;-58
2022/08/12 20:34:53;;;;;;;2.63;1.70;;;;;;;20.38;52.88;97092.13;10463137;28;20062;-58
2022/08/12 20:40:12;;;;;;;2.88;1.60;;;;;;;20.37;52.93;97099.47;10466739;28;20428;-59
2022/08/12 20:45:32;;;;;;;1.70;1.60;;;;;;;20.36;52.83;97089.75;10464678;28;20045;-59
2022/08/12 20:50:52;;;;;;;1.63;1.40;;;;;;;20.37;52.75;97085.94;10462471;28;20091;-59
2022/08/12 20:56:15;;;;;;;1.85;1.40;;;;;;;20.37;52.76;97085.16;10484303;28;20045;-59
2022/08/12 21:01:36;;;;;;;3.67;1.60;;;;;;;20.36;52.72;97084.31;10462270;28;20082;-58
2022/08/12 21:06:56;;;;;;;2.38;1.52;;;;;;;20.35;52.76;97083.53;10463459;28;20048;-59
2022/08/12 21:12:23;;;;;;;1.45;1.35;;;;;;;20.35;52.71;97091.66;10468651;28;20080;-57
2022/08/12 21:17:42;;;;;;;1.63;1.48;;;;;;;20.34;52.68;97081.94;10501395;28;20049;-58
2022/08/12 21:23:03;;;;;;;1.55;1.45;;;;;;;20.34;52.65;97087.34;10467146;28;20052;-58
2022/08/12 21:28:23;;;;;;;3.72;1.73;;;;;;;20.35;52.69;97093.56;10481822;28;20484;-59
2022/08/12 21:33:42;;;;;;;1.50;1.40;;;;;;;20.33;52.49;97088.47;10460241;28;20052;-58
2022/08/12 21:39:03;;;;;;;1.70;1.60;;;;;;;20.33;52.38;97085.78;10480188;28;20480;-58
2022/08/12 21:44:27;;;;;;;1.58;1.48;;;;;;;20.34;52.34;97087.34;10498130;28;20059;-59
2022/08/12 21:49:46;;;;;;;1.75;1.42;;;;;;;20.32;52.17;97086.88;10493580;28;20090;-58
2022/08/12 21:55:07;;;;;;;1.65;1.48;;;;;;;20.33;52.16;97087.69;10498989;28;20041;-59
2022/08/12 22:00:27;;;;;;;2.22;1.55;;;;;;;20.33;52.01;97093.09;10480776;28;20086;-58
2022/08/12 22:11:25;;;;;;;2.10;1.63;;;;;;;20.32;52.06;97105.81;10497716;28;20060;-58
2022/08/12 22:16:45;;;;;;;2.40;1.88;;;;;;;20.31;51.90;97101.53;10497995;28;20287;-58
2022/08/12 22:22:05;;;;;;;1.77;1.60;;;;;;;20.31;51.57;97101.53;10473131;28;20065;-59
2022/08/12 22:27:25;;;;;;;2.83;1.80;;;;;;;20.32;51.57;97105.03;10497273;28;20389;-58
2022/08/12 22:32:47;;;;;;;2.10;1.67;;;;;;;20.32;51.56;97103.09;10472208;28;20064;-59
2022/08/12 22:38:16;;;;;;;1.77;1.67;;;;;;;20.31;51.58;97101.53;10465784;28;20045;-59
2022/08/12 22:49:14;;;;;;;2.30;1.95;;;;;;;20.30;51.18;97086.41;10461936;28;20061;-59
2022/08/12 22:54:34;;;;;;;2.85;1.70;;;;;;;20.29;51.14;97090.25;10492362;28;20071;-59
2022/08/12 22:59:57;;;;;;;1.98;1.88;;;;;;;20.29;51.00;97090.25;10472082;28;20053;-58
2022/08/12 23:05:16;;;;;;;2.00;1.90;;;;;;;20.30;51.05;97091.03;10447030;28;20122;-58
2022/08/12 23:10:36;;;;;;;2.00;1.90;;;;;;;20.28;51.08;97080.53;10460743;28;20482;-58
2022/08/12 23:15:59;;;;;;;2.13;1.92;;;;;;;20.29;50.96;97079.41;10472914;28;20049;-58
2022/08/12 23:21:18;;;;;;;2.00;1.80;;;;;;;20.29;50.91;97075.94;10478265;28;20053;-59
2022/08/12 23:32:27;;;;;;;2.30;2.10;;;;;;;20.28;50.87;97071.63;10444266;28;20115;-57
2022/08/12 23:37:47;;;;;;;2.53;1.88;;;;;;;20.27;50.82;97068.13;10465287;28;20368;-59
2022/08/12 23:43:07;;;;;;;2.05;1.80;;;;;;;20.27;50.83;97065.41;10443490;28;20158;-59
2022/08/12 23:48:26;;;;;;;2.75;2.05;;;;;;;20.27;50.75;97060.00;10467064;28;20049;-59
2022/08/12 23:53:45;;;;;;;2.35;2.15;;;;;;;20.27;50.68;97057.31;10471396;28;20416;-59
2022/08/12 23:59:06;;;;;;;2.22;1.85;;;;;;;20.25;50.68;97048.72;10506740;28;20051;-59
